Flyselskap
Antall som skal vises: 
Nr. Nettlenke Treff
1   Link   Agderfly
1765
2   Link   Airlift
2170
3   Link   BenAir
1971
4   Link   Bergen Air Transport
2109
5   Link   CHC Helikopter Service
1675
6   Link   Coast Air
2016
7   Link   European Flight Training Center
1797
8   Link   European Helicopter Center
2187
9   Link   Fly Taxi Nord
1916
10   Link   Flyreklame
2309
11   Link   Fonnafly Sjø
1678
12   Link   Guard Systems
3311
13   Link   Heli-Team
2125
14   Link   Helifly
1789
15   Link   Helikopter Utleie
1833
16   Link   Helikopterdrift
1761
17   Link   Helitrans
1736
18   Link   Hesnes Air
2249
19   Link   Kato Airline
1838
20   Link   Lufttransport
2201
«StartForrige12NesteSiste»
Side 1 av 2
 
METAR
2018/10/20 21:50 ENCN 202150Z AUTO 26006KT 9999 BKN015/// OVC020/// 10/07 Q1024
TAF
2018/10/20 18:38 TAF ENCN 201700Z 2018/2021 VRB05KT 9999 FEW040 BKN070
LN-KFK
Operativ VFR-natt
VFR dag
07:35 - 18:48
Brannvakt
Inaktiv
Banner
Banner
Banner
Banner
Banner